createdAt,value
2024-01-10T00:00:58.842Z,100272.37
2024-01-10T00:03:25.890Z,100266.89
2024-01-10T00:05:52.763Z,100268.61
2024-01-10T00:08:20.243Z,100266.59
2024-01-10T00:10:47.276Z,100262.86
2024-01-10T00:13:14.325Z,100264.55
2024-01-10T00:15:41.190Z,100268.17
2024-01-10T00:18:08.177Z,100266.83
2024-01-10T00:20:35.108Z,100266.29
2024-01-10T00:23:02.105Z,100264.91
2024-01-10T00:25:28.991Z,100262.46
2024-01-10T00:27:56.353Z,100265.30
2024-01-10T00:30:23.713Z,100272.02
2024-01-10T00:32:50.666Z,100283.48
2024-01-10T00:35:18.032Z,100288.35
2024-01-10T00:37:44.966Z,100285.70
2024-01-10T00:40:12.037Z,100282.67
2024-01-10T00:42:38.952Z,100281.13
2024-01-10T00:45:06.404Z,100283.52
2024-01-10T00:47:33.317Z,100281.47
2024-01-10T00:50:00.833Z,100278.40
2024-01-10T00:52:27.749Z,100282.30
2024-01-10T00:54:54.807Z,100281.89
2024-01-10T00:57:21.662Z,100282.17
2024-01-10T00:59:48.754Z,100286.58
2024-01-10T01:02:15.798Z,100290.63
2024-01-10T01:04:42.886Z,100287.73
2024-01-10T01:07:10.145Z,100287.91
2024-01-10T01:09:37.023Z,100281.91
2024-01-10T01:12:04.374Z,100286.35
2024-01-10T01:14:31.319Z,100284.20
2024-01-10T01:16:58.239Z,100282.61
2024-01-10T01:19:25.183Z,100282.10
2024-01-10T01:21:52.366Z,100279.73
2024-01-10T01:24:19.191Z,100279.58
2024-01-10T01:26:46.236Z,100280.78
2024-01-10T01:29:13.222Z,100289.02
2024-01-10T01:31:41.550Z,100285.49
2024-01-10T01:34:08.675Z,100281.27
2024-01-10T01:36:35.884Z,100273.44
2024-01-10T01:39:02.896Z,100270.47
2024-01-10T01:41:29.793Z,100266.73
2024-01-10T01:43:56.836Z,100262.98
2024-01-10T01:46:24.655Z,100257.50
2024-01-10T01:48:52.100Z,100256.14
2024-01-10T01:51:21.852Z,100252.71
2024-01-10T01:53:51.149Z,100253.73
2024-01-10T01:56:18.605Z,100249.60
2024-01-10T01:58:47.140Z,100252.40
2024-01-10T02:01:14.271Z,100252.48
2024-01-10T02:03:41.431Z,100252.80
2024-01-10T02:06:08.407Z,100251.88
2024-01-10T02:08:36.829Z,100257.33
2024-01-10T02:11:05.080Z,100256.48
2024-01-10T02:13:34.266Z,100252.41
2024-01-10T02:16:01.726Z,100255.67
2024-01-10T02:18:28.905Z,100260.24
2024-01-10T02:20:56.087Z,100263.66
2024-01-10T02:23:23.113Z,100261.63
2024-01-10T02:25:50.877Z,100260.77
2024-01-10T02:28:17.946Z,100257.61
2024-01-10T02:30:45.108Z,100252.75
2024-01-10T02:33:12.226Z,100242.96
2024-01-10T02:35:39.190Z,100234.52
2024-01-10T02:38:07.204Z,100231.91
2024-01-10T02:40:34.275Z,100227.98
2024-01-10T02:43:01.296Z,100225.97
2024-01-10T02:45:28.175Z,100227.16
2024-01-10T02:47:55.166Z,100226.61
2024-01-10T02:50:22.174Z,100222.67
2024-01-10T02:52:50.141Z,100226.61
2024-01-10T02:55:17.236Z,100224.87
2024-01-10T02:57:44.176Z,100221.14
2024-01-10T03:00:12.510Z,100223.71
2024-01-10T03:02:39.577Z,100223.92
2024-01-10T03:05:06.886Z,100221.56
2024-01-10T03:07:33.760Z,100220.55
2024-01-10T03:10:00.965Z,100217.48
2024-01-10T03:12:27.919Z,100216.27
2024-01-10T03:14:54.757Z,100215.08
2024-01-10T03:17:21.712Z,100212.99
2024-01-10T03:19:48.838Z,100208.86
2024-01-10T03:22:15.788Z,100212.09
2024-01-10T03:24:42.658Z,100205.93
2024-01-10T03:27:09.612Z,100210.82
2024-01-10T03:29:36.590Z,100207.41
2024-01-10T03:32:03.985Z,100205.05
2024-01-10T03:34:30.870Z,100206.79
2024-01-10T03:36:57.755Z,100205.50
2024-01-10T03:39:24.602Z,100208.45
2024-01-10T03:41:51.473Z,100210.89
2024-01-10T03:44:18.633Z,100207.30
2024-01-10T03:46:46.170Z,100200.81
2024-01-10T03:49:13.256Z,100205.95
2024-01-10T03:51:41.954Z,100208.48
2024-01-10T03:54:08.908Z,100208.96
2024-01-10T03:56:36.111Z,100210.66
2024-01-10T03:59:03.341Z,100209.61
2024-01-10T04:01:30.357Z,100205.80
2024-01-10T04:03:57.262Z,100202.95
2024-01-10T04:06:25.487Z,100197.30
2024-01-10T04:08:52.383Z,100190.28
2024-01-10T04:11:19.331Z,100193.86
2024-01-10T04:13:46.461Z,100194.60
2024-01-10T04:16:14.344Z,100195.14
2024-01-10T04:18:42.119Z,100196.84
2024-01-10T04:21:09.989Z,100199.92
2024-01-10T04:23:37.099Z,100197.27
2024-01-10T04:26:04.618Z,100196.76
2024-01-10T04:28:31.782Z,100200.14
2024-01-10T04:30:58.797Z,100203.16
2024-01-10T04:33:25.965Z,100200.23
2024-01-10T04:35:52.885Z,100183.58
2024-01-10T04:38:20.063Z,100199.52
2024-01-10T04:40:47.075Z,100202.70
2024-01-10T04:43:13.987Z,100199.36
2024-01-10T04:45:40.807Z,100198.28
2024-01-10T04:48:08.214Z,100198.77
2024-01-10T04:50:36.274Z,100201.55
2024-01-10T04:53:03.379Z,100199.10
2024-01-10T04:55:30.397Z,100195.23
2024-01-10T04:57:57.323Z,100194.20
2024-01-10T05:00:24.199Z,100194.02
2024-01-10T05:02:53.042Z,100191.41
2024-01-10T05:05:25.195Z,100187.06
2024-01-10T05:07:52.767Z,100190.12
2024-01-10T05:10:19.767Z,100193.66
2024-01-10T05:12:46.606Z,100198.81
2024-01-10T05:15:13.705Z,100200.30
2024-01-10T05:17:40.602Z,100202.48
2024-01-10T05:20:08.189Z,100202.61
2024-01-10T05:22:36.846Z,100195.92
2024-01-10T05:25:05.750Z,100198.65
2024-01-10T05:27:33.000Z,100202.73
2024-01-10T05:30:01.069Z,100198.64
2024-01-10T05:32:29.042Z,100196.25
2024-01-10T05:34:56.219Z,100197.04
2024-01-10T05:37:23.694Z,100192.98
2024-01-10T05:39:50.838Z,100188.76
2024-01-10T05:42:17.998Z,100195.94
2024-01-10T05:44:44.976Z,100195.77
2024-01-10T05:47:12.043Z,100189.98
2024-01-10T05:49:39.008Z,100193.92
2024-01-10T05:52:06.175Z,100201.79
2024-01-10T05:54:32.993Z,100199.75
2024-01-10T05:57:02.137Z,100203.67
2024-01-10T05:59:30.187Z,100204.38
2024-01-10T06:01:58.734Z,100205.33
2024-01-10T06:04:25.912Z,100208.41
2024-01-10T06:06:52.792Z,100216.75
2024-01-10T06:09:23.350Z,100223.19
2024-01-10T06:11:50.378Z,100216.52
2024-01-10T06:14:17.855Z,100221.14
2024-01-10T06:16:46.584Z,100223.59
2024-01-10T06:19:13.650Z,100221.21
2024-01-10T06:21:40.558Z,100221.70
2024-01-10T06:24:07.618Z,100218.98
2024-01-10T06:26:34.448Z,100218.30
2024-01-10T06:29:01.377Z,100216.55
2024-01-10T06:31:28.277Z,100219.21
2024-01-10T06:33:55.553Z,100223.80
2024-01-10T06:36:22.868Z,100222.82
2024-01-10T06:38:49.916Z,100224.03
2024-01-10T06:41:16.998Z,100223.33
2024-01-10T06:43:43.989Z,100217.00
2024-01-10T06:46:12.057Z,100218.06
2024-01-10T06:48:42.500Z,100214.75
2024-01-10T06:51:15.007Z,100210.35
2024-01-10T06:53:42.236Z,100204.23
2024-01-10T06:56:10.854Z,100209.05
2024-01-10T06:58:37.964Z,100208.30
2024-01-10T07:01:06.848Z,100209.27
2024-01-10T07:03:36.183Z,100206.96
2024-01-10T07:06:03.358Z,100205.38
2024-01-10T07:08:32.050Z,100204.44
2024-01-10T07:10:59.162Z,100204.52
2024-01-10T07:13:26.086Z,100202.01
2024-01-10T07:15:53.834Z,100207.41
2024-01-10T07:18:21.040Z,100197.27
2024-01-10T07:20:48.291Z,100193.04
2024-01-10T07:23:15.350Z,100190.77
2024-01-10T07:25:42.488Z,100193.42
2024-01-10T07:28:09.497Z,100192.55
2024-01-10T07:30:36.449Z,100191.31
2024-01-10T07:33:03.829Z,100184.28
2024-01-10T07:35:31.708Z,100192.20
2024-01-10T07:37:58.772Z,100191.00
2024-01-10T07:40:25.850Z,100184.79
2024-01-10T07:42:52.806Z,100187.80
2024-01-10T07:45:19.667Z,100189.23
2024-01-10T07:47:47.962Z,100187.70
2024-01-10T07:50:16.566Z,100188.88
2024-01-10T07:52:44.262Z,100187.11
2024-01-10T07:55:11.254Z,100185.32
2024-01-10T07:57:38.373Z,100182.45
2024-01-10T08:00:12.298Z,100185.87
2024-01-10T08:02:40.476Z,100180.49
2024-01-10T08:05:09.991Z,100184.54
2024-01-10T08:07:38.564Z,100176.69
2024-01-10T08:10:07.352Z,100177.00
2024-01-10T08:12:34.222Z,100182.45
2024-01-10T08:15:01.896Z,100184.13
2024-01-10T08:17:31.078Z,100182.52
2024-01-10T08:19:58.209Z,100182.04
2024-01-10T08:22:27.241Z,100178.45
2024-01-10T08:24:57.453Z,100171.34
2024-01-10T08:27:24.928Z,100164.88
2024-01-10T08:29:52.612Z,100164.11
2024-01-10T08:32:21.990Z,100165.04
2024-01-10T08:34:50.225Z,100161.24
2024-01-10T08:37:18.613Z,100163.84
2024-01-10T08:39:45.677Z,100163.74
2024-01-10T08:42:12.856Z,100166.89
2024-01-10T08:44:39.995Z,100172.02
2024-01-10T08:47:07.068Z,100166.80
2024-01-10T08:49:34.050Z,100163.67
2024-01-10T08:52:00.921Z,100165.84
2024-01-10T08:54:28.307Z,100166.95
2024-01-10T08:56:55.475Z,100156.23
2024-01-10T08:59:22.467Z,100148.26
2024-01-10T09:01:49.421Z,100149.36
2024-01-10T09:04:16.394Z,100147.69
2024-01-10T09:06:43.307Z,100143.70
2024-01-10T09:09:10.248Z,100137.65
2024-01-10T09:11:40.130Z,100142.14
2024-01-10T09:14:10.532Z,100139.34
2024-01-10T09:16:37.591Z,100137.48
2024-01-10T09:19:05.171Z,100133.84
2024-01-10T09:21:32.820Z,100135.09
2024-01-10T09:24:03.789Z,100129.45
2024-01-10T09:26:35.506Z,100129.88
2024-01-10T09:29:02.405Z,100123.58
2024-01-10T09:31:29.442Z,100113.33
2024-01-10T09:33:56.487Z,100116.18
2024-01-10T09:36:23.530Z,100116.25
2024-01-10T09:38:50.457Z,100114.23
2024-01-10T09:41:18.228Z,100117.05
2024-01-10T09:43:45.231Z,100112.19
2024-01-10T09:46:12.707Z,100106.95
2024-01-10T09:48:40.065Z,100101.42
2024-01-10T09:51:08.096Z,100099.35
2024-01-10T09:56:06.169Z,100089.34
2024-01-10T09:58:35.285Z,100088.45
2024-01-10T10:01:05.240Z,100083.01
2024-01-10T10:03:37.563Z,100084.74
2024-01-10T10:06:05.932Z,100077.97
2024-01-10T10:08:32.962Z,100077.44
2024-01-10T10:11:00.516Z,100076.40
2024-01-10T10:13:30.550Z,100075.78
2024-01-10T10:16:01.110Z,100084.48
2024-01-10T10:18:29.169Z,100082.18
2024-01-10T10:21:13.786Z,100079.21
2024-01-10T10:23:42.982Z,100078.75
2024-01-10T10:26:12.463Z,100080.54
2024-01-10T10:28:41.677Z,100077.30
2024-01-10T10:31:09.927Z,100077.39
2024-01-10T10:33:38.711Z,100078.71
2024-01-10T10:36:06.254Z,100075.34
2024-01-10T10:38:33.278Z,100072.94
2024-01-10T10:41:01.085Z,100073.48
2024-01-10T10:43:32.173Z,100073.20
2024-01-10T10:45:59.575Z,100068.16
2024-01-10T10:48:27.980Z,100068.21
2024-01-10T10:51:05.133Z,100069.52
2024-01-10T10:53:33.159Z,100066.95
2024-01-10T10:56:01.785Z,100063.66
2024-01-10T10:58:29.392Z,100058.89
2024-01-10T11:00:58.463Z,100056.91
2024-01-10T11:03:28.916Z,100045.41
2024-01-10T11:05:56.976Z,100045.22
2024-01-10T11:08:25.902Z,100045.59
2024-01-10T11:10:54.582Z,100042.53
2024-01-10T11:13:33.923Z,100043.17
2024-01-10T11:16:27.408Z,100037.30
2024-01-10T11:19:13.365Z,100036.92
2024-01-10T11:22:11.662Z,100039.20
2024-01-10T11:24:39.107Z,100033.88
2024-01-10T11:27:13.402Z,100032.11
2024-01-10T11:29:41.345Z,100030.95
2024-01-10T11:32:14.385Z,100036.56
2024-01-10T11:35:00.552Z,100033.71
2024-01-10T11:37:41.159Z,100035.09
2024-01-10T11:40:10.730Z,100035.19
2024-01-10T11:42:46.970Z,100036.19
2024-01-10T11:45:35.224Z,100037.41
2024-01-10T11:48:02.325Z,100025.23
2024-01-10T11:50:32.486Z,100018.13
2024-01-10T11:52:59.566Z,100019.41
2024-01-10T11:55:49.614Z,100018.40
2024-01-10T11:58:18.205Z,100013.67
2024-01-10T12:00:45.427Z,100005.27
2024-01-10T12:03:14.123Z,99999.15
2024-01-10T12:05:41.648Z,100003.35
2024-01-10T12:08:09.887Z,100004.27
2024-01-10T12:10:46.888Z,100005.89
2024-01-10T12:13:13.770Z,100008.10
2024-01-10T12:15:41.230Z,100009.88
2024-01-10T12:18:10.101Z,100005.84
2024-01-10T12:20:37.307Z,100002.22
2024-01-10T12:23:04.468Z,100003.41
2024-01-10T12:25:31.530Z,100007.29
2024-01-10T12:28:02.986Z,100009.83
2024-01-10T12:30:30.052Z,100000.16
2024-01-10T12:32:56.951Z,99991.52
2024-01-10T12:35:23.952Z,99987.54
2024-01-10T12:37:59.039Z,99984.05
2024-01-10T12:40:26.289Z,99982.19
2024-01-10T12:43:10.830Z,99980.34
2024-01-10T12:45:38.245Z,99970.67
2024-01-10T12:48:05.853Z,99961.60
2024-01-10T12:50:32.968Z,99957.52
2024-01-10T12:53:00.651Z,99956.16
2024-01-10T12:55:29.371Z,99951.41
2024-01-10T12:58:00.831Z,99948.42
2024-01-10T13:00:30.274Z,99950.57
2024-01-10T13:02:57.478Z,99952.52
2024-01-10T13:05:24.629Z,99951.14
2024-01-10T13:07:51.966Z,99955.70
2024-01-10T13:10:19.834Z,99954.43
2024-01-10T13:12:46.777Z,99951.91
2024-01-10T13:15:13.715Z,99950.09
2024-01-10T13:17:41.287Z,99951.31
2024-01-10T13:20:11.002Z,99950.40
2024-01-10T13:22:38.104Z,99946.48
2024-01-10T13:25:05.533Z,99944.95
2024-01-10T13:27:33.401Z,99940.26
2024-01-10T13:30:00.397Z,99946.14
2024-01-10T13:32:27.294Z,99947.44
2024-01-10T13:34:54.254Z,99948.30
2024-01-10T13:37:21.266Z,99952.04
2024-01-10T13:39:48.130Z,99953.44
2024-01-10T13:42:15.138Z,99952.19
2024-01-10T13:44:42.308Z,99950.15
2024-01-10T13:47:10.501Z,99946.96
2024-01-10T13:49:37.344Z,99947.36
2024-01-10T13:52:05.266Z,99952.20
2024-01-10T13:54:32.206Z,99949.06
2024-01-10T13:56:59.113Z,99951.55
2024-01-10T13:59:26.128Z,99954.98
2024-01-10T14:01:54.534Z,99950.20
2024-01-10T14:04:21.450Z,99951.07
2024-01-10T14:06:48.322Z,99951.38
2024-01-10T14:09:15.597Z,99952.38
2024-01-10T14:11:42.593Z,99946.77
2024-01-10T14:14:09.542Z,99947.64
2024-01-10T14:16:36.551Z,99943.77
2024-01-10T14:19:04.198Z,99945.88
2024-01-10T14:21:33.353Z,99946.63
2024-01-10T14:24:02.499Z,99948.95
2024-01-10T14:26:29.441Z,99953.05
2024-01-10T14:28:58.068Z,99957.20
2024-01-10T14:31:33.501Z,99956.40
2024-01-10T14:34:09.509Z,99957.75
2024-01-10T14:36:41.263Z,99956.04
2024-01-10T14:39:09.413Z,99952.75
2024-01-10T14:41:36.310Z,99954.39
2024-01-10T14:44:05.030Z,99952.28
2024-01-10T14:46:32.478Z,99957.40
2024-01-10T14:48:59.523Z,99956.56
2024-01-10T14:51:26.872Z,99953.00
2024-01-10T14:53:54.049Z,99951.04
2024-01-10T14:56:22.192Z,99951.98
2024-01-10T14:58:49.181Z,99951.55
2024-01-10T15:01:16.197Z,99951.19
2024-01-10T15:03:44.068Z,99946.30
2024-01-10T15:06:11.469Z,99945.48
2024-01-10T15:08:38.459Z,99947.65
2024-01-10T15:11:05.432Z,99946.45
2024-01-10T15:13:32.364Z,99951.16
2024-01-10T15:15:59.494Z,99946.62
2024-01-10T15:18:26.456Z,99946.37
2024-01-10T15:20:53.779Z,99951.41
2024-01-10T15:23:20.734Z,99950.92
2024-01-10T15:25:47.725Z,99950.89
2024-01-10T15:28:14.674Z,99949.07
2024-01-10T15:30:47.857Z,99948.31
2024-01-10T15:33:15.578Z,99952.30
2024-01-10T15:35:42.644Z,99947.39
2024-01-10T15:38:09.655Z,99945.30
2024-01-10T15:40:36.561Z,99951.07
2024-01-10T15:43:03.570Z,99951.87
2024-01-10T15:45:32.824Z,99954.02
2024-01-10T15:48:00.672Z,99956.98
2024-01-10T15:50:28.295Z,99951.63
2024-01-10T15:52:55.342Z,99944.08
2024-01-10T15:55:22.256Z,99942.62
2024-01-10T15:57:50.025Z,99936.50
2024-01-10T16:00:17.391Z,99934.59
2024-01-10T16:02:44.267Z,99937.98
2024-01-10T16:05:11.403Z,99939.27
2024-01-10T16:07:38.413Z,99939.61
2024-01-10T16:10:05.779Z,99941.37
2024-01-10T16:12:32.926Z,99937.83
2024-01-10T16:14:59.976Z,99936.84
2024-01-10T16:17:26.922Z,99935.55
2024-01-10T16:19:53.920Z,99935.45
2024-01-10T16:22:20.830Z,99937.20
2024-01-10T16:24:47.769Z,99940.83
2024-01-10T16:27:14.714Z,99948.34
2024-01-10T16:29:41.771Z,99949.23
2024-01-10T16:32:08.845Z,99949.23
2024-01-10T16:34:36.767Z,99943.10
2024-01-10T16:37:04.918Z,99938.37
2024-01-10T16:39:31.822Z,99937.23
2024-01-10T16:41:58.779Z,99931.73
2024-01-10T16:44:25.847Z,99935.59
2024-01-10T16:46:52.934Z,99937.55
2024-01-10T16:49:20.047Z,99940.35
2024-01-10T16:51:47.026Z,99941.47
2024-01-10T16:54:14.090Z,99944.80
2024-01-10T16:56:41.126Z,99945.87
2024-01-10T16:59:08.541Z,99947.59
2024-01-10T17:01:37.036Z,99951.10
2024-01-10T17:04:04.671Z,99952.75
2024-01-10T17:06:32.531Z,99947.15
2024-01-10T17:09:02.158Z,99943.85
2024-01-10T17:11:37.435Z,99940.74
2024-01-10T17:14:04.595Z,99941.62
2024-01-10T17:16:36.483Z,99940.21
2024-01-10T17:19:04.181Z,99944.27
2024-01-10T17:21:31.181Z,99943.34
2024-01-10T17:23:58.227Z,99943.59
2024-01-10T17:26:25.478Z,99941.30
2024-01-10T17:28:52.935Z,99942.61
2024-01-10T17:31:20.117Z,99943.25
2024-01-10T17:33:47.381Z,99941.17
2024-01-10T17:36:14.964Z,99935.05
2024-01-10T17:38:42.011Z,99930.06
2024-01-10T17:41:09.993Z,99926.16
2024-01-10T17:43:39.246Z,99919.55
2024-01-10T17:46:06.079Z,99922.25
2024-01-10T17:48:33.124Z,99921.82
2024-01-10T17:51:00.139Z,99919.16
2024-01-10T17:53:27.315Z,99919.83
2024-01-10T17:55:54.295Z,99921.98
2024-01-10T17:58:21.359Z,99918.57
2024-01-10T18:00:48.313Z,99914.46
2024-01-10T18:03:15.707Z,99914.80
2024-01-10T18:05:44.470Z,99909.96
2024-01-10T18:08:11.523Z,99905.80
2024-01-10T18:10:38.651Z,99900.65
2024-01-10T18:13:06.359Z,99905.38
2024-01-10T18:15:34.059Z,99896.50
2024-01-10T18:18:01.057Z,99898.98
2024-01-10T18:20:29.870Z,99892.88
2024-01-10T18:22:56.950Z,99883.64
2024-01-10T18:25:23.976Z,99880.80
2024-01-10T18:27:50.807Z,99880.05
2024-01-10T18:30:17.881Z,99880.83
2024-01-10T18:32:45.026Z,99878.05
2024-01-10T18:35:12.201Z,99877.30
2024-01-10T18:37:39.244Z,99875.27
2024-01-10T18:40:06.701Z,99874.18
2024-01-10T18:42:33.552Z,99866.83
2024-01-10T18:45:00.910Z,99867.19
2024-01-10T18:47:27.927Z,99864.20
2024-01-10T18:49:55.466Z,99863.59
2024-01-10T18:52:22.353Z,99861.70
2024-01-10T18:54:49.322Z,99858.77
2024-01-10T18:57:19.634Z,99853.64
2024-01-10T18:59:46.779Z,99851.95
2024-01-10T19:02:14.428Z,99848.77
2024-01-10T19:04:41.395Z,99844.13
2024-01-10T19:07:08.339Z,99842.98
2024-01-10T19:09:35.241Z,99844.77
2024-01-10T19:12:05.805Z,99848.35
2024-01-10T19:14:35.953Z,99852.05
2024-01-10T19:17:03.126Z,99857.12
2024-01-10T19:19:30.519Z,99857.66
2024-01-10T19:22:01.679Z,99858.79
2024-01-10T19:24:29.461Z,99858.85
2024-01-10T19:26:56.432Z,99862.71
2024-01-10T19:29:25.021Z,99856.55
2024-01-10T19:31:53.114Z,99855.65
2024-01-10T19:34:21.254Z,99852.02
2024-01-10T19:36:48.484Z,99855.09
2024-01-10T19:39:16.964Z,99852.61
2024-01-10T19:41:43.942Z,99850.84
2024-01-10T19:44:10.992Z,99846.59
2024-01-10T19:46:38.217Z,99844.08
2024-01-10T19:49:05.374Z,99849.09
2024-01-10T19:51:34.640Z,99843.45
2024-01-10T19:54:01.792Z,99846.10
2024-01-10T19:56:31.307Z,99846.33
2024-01-10T19:58:59.235Z,99845.81
2024-01-10T20:01:26.973Z,99842.72
2024-01-10T20:03:54.231Z,99845.89
2024-01-10T20:06:21.361Z,99843.23
2024-01-10T20:08:48.423Z,99842.06
2024-01-10T20:11:16.043Z,99841.45
2024-01-10T20:13:45.989Z,99843.04
2024-01-10T20:16:13.652Z,99847.00
2024-01-10T20:18:40.628Z,99852.88
2024-01-10T20:21:07.870Z,99852.71
2024-01-10T20:23:36.869Z,99853.27
2024-01-10T20:26:06.099Z,99845.70
2024-01-10T20:28:33.098Z,99861.08
2024-01-10T20:31:00.064Z,99857.24
2024-01-10T20:33:27.744Z,99853.41
2024-01-10T20:35:55.322Z,99856.48
2024-01-10T20:38:22.230Z,99854.86
2024-01-10T20:40:49.296Z,99850.70
2024-01-10T20:43:16.286Z,99845.70
2024-01-10T20:45:43.665Z,99848.14
2024-01-10T20:48:10.719Z,99841.91
2024-01-10T20:50:41.360Z,99851.79
2024-01-10T20:53:08.497Z,99854.39
2024-01-10T20:55:35.848Z,99856.09
2024-01-10T20:58:03.410Z,99852.98
2024-01-10T21:00:31.152Z,99848.69
2024-01-10T21:02:58.128Z,99850.67
2024-01-10T21:05:25.048Z,99859.39
2024-01-10T21:07:53.132Z,99865.43
2024-01-10T21:10:20.060Z,99866.46
2024-01-10T21:12:47.001Z,99865.66
2024-01-10T21:15:14.069Z,99859.04
2024-01-10T21:17:41.068Z,99852.95
2024-01-10T21:20:10.195Z,99855.33
2024-01-10T21:22:37.335Z,99849.21
2024-01-10T21:25:05.043Z,99845.63
2024-01-10T21:27:32.323Z,99844.38
2024-01-10T21:29:59.255Z,99848.50
2024-01-10T21:32:26.524Z,99847.48
2024-01-10T21:34:54.697Z,99844.01
2024-01-10T21:37:21.736Z,99850.62
2024-01-10T21:39:48.616Z,99853.11
2024-01-10T21:42:15.514Z,99847.95
2024-01-10T21:44:43.797Z,99842.61
2024-01-10T21:47:10.815Z,99841.07
2024-01-10T21:49:37.660Z,99837.44
2024-01-10T21:52:06.700Z,99833.62
2024-01-10T21:54:34.451Z,99828.77
2024-01-10T21:57:01.911Z,99828.74
2024-01-10T21:59:28.915Z,99824.43
2024-01-10T22:01:55.782Z,99823.58
2024-01-10T22:04:22.748Z,99826.51
2024-01-10T22:06:49.927Z,99825.12
2024-01-10T22:09:16.921Z,99813.52
2024-01-10T22:11:43.823Z,99814.37
2024-01-10T22:14:10.910Z,99810.95
2024-01-10T22:16:37.799Z,99806.72
2024-01-10T22:19:04.741Z,99806.23
2024-01-10T22:21:31.749Z,99815.55
2024-01-10T22:23:58.724Z,99820.17
2024-01-10T22:26:25.597Z,99824.27
2024-01-10T22:28:52.750Z,99821.52
2024-01-10T22:31:19.705Z,99819.34
2024-01-10T22:33:47.124Z,99819.87
2024-01-10T22:36:15.086Z,99815.95
2024-01-10T22:38:43.026Z,99813.36
2024-01-10T22:41:09.999Z,99806.34
2024-01-10T22:43:37.078Z,99804.33
2024-01-10T22:46:04.036Z,99810.38
2024-01-10T22:48:31.646Z,99806.44
2024-01-10T22:51:00.428Z,99802.33
2024-01-10T22:53:27.629Z,99801.50
2024-01-10T22:55:54.643Z,99800.88
2024-01-10T22:58:23.419Z,99799.56
2024-01-10T23:00:52.233Z,99801.19
2024-01-10T23:03:20.794Z,99794.36
2024-01-10T23:05:48.023Z,99791.00
2024-01-10T23:08:15.107Z,99784.75
2024-01-10T23:10:42.336Z,99787.24
2024-01-10T23:13:09.223Z,99786.75
2024-01-10T23:15:36.094Z,99778.17
2024-01-10T23:18:03.334Z,99768.37
2024-01-10T23:20:30.354Z,99765.56
2024-01-10T23:22:57.352Z,99765.02
2024-01-10T23:25:24.288Z,99762.58
2024-01-10T23:27:51.812Z,99764.45
2024-01-10T23:30:19.919Z,99760.13
2024-01-10T23:32:48.003Z,99762.33
2024-01-10T23:35:15.210Z,99766.05
2024-01-10T23:37:42.628Z,99771.85
2024-01-10T23:40:09.960Z,99774.38
2024-01-10T23:42:36.864Z,99771.23
2024-01-10T23:45:04.063Z,99771.03
2024-01-10T23:47:31.034Z,99771.88
2024-01-10T23:49:58.099Z,99772.20
2024-01-10T23:52:24.974Z,99766.50
2024-01-10T23:54:51.950Z,99761.17
2024-01-10T23:57:18.869Z,99756.57
2024-01-10T23:59:45.836Z,99750.62
